Time;durP1;ratioP1;P1;durP2;ratioP2;P2;SDS_P1;SDS_P2;PMS_P1;PMS_P2;Temp;Humidity;BMP_temperature;BMP_pressure;BME280_temperature;BME280_humidity;BME280_pressure;Samples;Min_cycle;Max_cycle;Signal;HPM_P1;HPM_P2
2023/12/03 00:02:03;;;;;;;35.72;22.80;;;;;;;-0.11;100.00;101863.47;5047347;28;20028;-63
2023/12/03 00:04:28;;;;;;;35.17;23.70;;;;;;;-0.08;100.00;101857.34;5043937;28;20024;-62
2023/12/03 00:06:54;;;;;;;36.70;23.52;;;;;;;-0.05;100.00;101859.88;5045074;28;20025;-63
2023/12/03 00:09:19;;;;;;;34.65;22.58;;;;;;;-0.04;100.00;101856.41;5049118;28;20371;-63
2023/12/03 00:11:45;;;;;;;36.63;22.90;;;;;;;-0.01;100.00;101857.19;5049563;28;20482;-63
2023/12/03 00:14:10;;;;;;;36.83;23.95;;;;;;;0.03;100.00;101855.41;5042428;28;20025;-63
2023/12/03 00:16:35;;;;;;;39.28;23.60;;;;;;;0.06;100.00;101854.50;5045072;28;20025;-63
2023/12/03 00:19:00;;;;;;;33.90;21.77;;;;;;;0.07;100.00;101858.84;5046192;28;20108;-63
2023/12/03 00:21:26;;;;;;;35.15;22.38;;;;;;;0.09;100.00;101857.91;5045074;28;20033;-63
2023/12/03 00:23:51;;;;;;;35.25;22.80;;;;;;;0.11;100.00;101866.59;5050366;28;20029;-63
2023/12/03 00:26:16;;;;;;;36.45;22.05;;;;;;;0.13;100.00;101864.84;5041882;28;20025;-63
2023/12/03 00:28:42;;;;;;;33.58;21.55;;;;;;;0.15;100.00;101859.56;5046396;28;20044;-63
2023/12/03 00:31:07;;;;;;;32.70;21.23;;;;;;;0.17;100.00;101863.03;5044465;28;20078;-63
2023/12/03 00:33:32;;;;;;;32.42;21.27;;;;;;;0.18;100.00;101863.00;5044970;28;20479;-63
2023/12/03 00:35:59;;;;;;;33.40;22.23;;;;;;;0.20;100.00;101869.94;5049544;28;20474;-62
2023/12/03 00:38:25;;;;;;;33.75;20.73;;;;;;;0.22;100.00;101873.38;5050360;28;20017;-63
2023/12/03 00:40:50;;;;;;;33.40;21.15;;;;;;;0.24;100.00;101869.00;5047040;28;20036;-62
2023/12/03 00:43:15;;;;;;;31.23;21.50;;;;;;;0.26;100.00;101868.06;5049926;28;20025;-63
2023/12/03 00:45:40;;;;;;;32.28;20.90;;;;;;;0.28;100.00;101873.28;5049519;28;20127;-63
2023/12/03 00:48:06;;;;;;;32.20;21.58;;;;;;;0.28;100.00;101874.13;5048783;28;20039;-63
2023/12/03 00:50:31;;;;;;;32.17;21.20;;;;;;;0.29;100.00;101877.63;5044038;28;20489;-63
2023/12/03 00:52:57;;;;;;;30.00;21.63;;;;;;;0.28;100.00;101871.53;5052951;28;20036;-63
2023/12/03 00:55:22;;;;;;;31.30;21.88;;;;;;;0.30;100.00;101874.09;5046955;28;20107;-63
2023/12/03 00:57:47;;;;;;;32.75;22.27;;;;;;;0.30;100.00;101874.09;5044056;28;20068;-63
2023/12/03 01:00:13;;;;;;;31.75;22.15;;;;;;;0.30;100.00;101877.59;5050310;28;20546;-63
2023/12/03 01:02:39;;;;;;;34.15;22.35;;;;;;;0.30;100.00;101875.00;5052623;28;20044;-63
2023/12/03 01:05:04;;;;;;;32.47;22.08;;;;;;;0.30;100.00;101884.56;5051304;28;20467;-63
2023/12/03 01:07:30;;;;;;;34.30;23.63;;;;;;;0.29;100.00;101881.09;5049365;28;20036;-63
2023/12/03 01:09:55;;;;;;;33.83;23.52;;;;;;;0.30;100.00;101885.44;5048381;28;20022;-63
2023/12/03 01:12:20;;;;;;;32.55;23.20;;;;;;;0.29;100.00;101883.72;5049836;28;20025;-63
2023/12/03 01:14:46;;;;;;;37.63;23.38;;;;;;;0.30;100.00;101885.44;5047107;28;20025;-63
2023/12/03 01:17:11;;;;;;;34.55;23.10;;;;;;;0.30;100.00;101885.44;5048926;28;20467;-63
2023/12/03 01:19:36;;;;;;;34.53;23.30;;;;;;;0.30;100.00;101888.06;5051362;28;20433;-63
2023/12/03 01:22:02;;;;;;;34.50;23.33;;;;;;;0.30;100.00;101888.06;5054206;28;20090;-63
2023/12/03 01:24:28;;;;;;;36.90;23.40;;;;;;;0.31;100.00;101897.59;5049581;28;20119;-64
2023/12/03 01:26:53;;;;;;;36.10;22.92;;;;;;;0.32;100.00;101893.25;5048656;28;20025;-63
2023/12/03 01:29:19;;;;;;;36.63;22.95;;;;;;;0.32;100.00;101898.50;5046570;28;20036;-63
2023/12/03 01:31:44;;;;;;;34.05;22.70;;;;;;;0.33;100.00;101898.47;5049519;28;20386;-63
2023/12/03 01:34:09;;;;;;;32.03;22.48;;;;;;;0.33;100.00;101897.56;5050897;28;20123;-63
2023/12/03 01:36:34;;;;;;;34.15;22.92;;;;;;;0.32;100.00;101896.72;5050257;28;20051;-64
2023/12/03 01:39:00;;;;;;;38.15;23.20;;;;;;;0.32;100.00;101901.94;5049584;28;20032;-63
2023/12/03 01:41:25;;;;;;;33.55;22.27;;;;;;;0.32;100.00;101906.31;5051318;28;20024;-63
2023/12/03 01:43:53;;;;;;;34.00;22.35;;;;;;;0.31;100.00;101900.22;5053392;28;20470;-63
2023/12/03 01:46:19;;;;;;;33.28;21.83;;;;;;;0.30;100.00;101901.13;5048684;28;20044;-63
2023/12/03 01:48:45;;;;;;;35.83;23.10;;;;;;;0.29;100.00;101896.78;5046608;28;20025;-64
2023/12/03 01:51:10;;;;;;;33.10;21.45;;;;;;;0.29;100.00;101904.63;5048628;28;20098;-63
2023/12/03 01:53:38;;;;;;;34.60;21.80;;;;;;;0.25;100.00;101900.34;5051888;28;20327;-63
2023/12/03 01:56:05;;;;;;;33.95;22.38;;;;;;;0.24;100.00;101903.81;5051295;28;20116;-63
2023/12/03 01:58:30;;;;;;;33.63;23.63;;;;;;;0.23;100.00;101902.09;5049439;28;20068;-63
2023/12/03 02:00:56;;;;;;;35.75;24.83;;;;;;;0.21;100.00;101908.25;5052370;28;20025;-63
2023/12/03 02:03:21;;;;;;;39.25;24.48;;;;;;;0.18;100.00;101902.19;5048624;28;20060;-63
2023/12/03 02:06:01;;;;;;;38.05;24.85;;;;;;;0.18;100.00;101907.41;5047064;28;20086;-63
2023/12/03 02:08:26;;;;;;;38.50;25.33;;;;;;;0.18;100.00;101903.91;5046375;28;20366;-63
2023/12/03 02:10:52;;;;;;;39.83;25.58;;;;;;;0.18;100.00;101915.25;5046460;28;20090;-63
2023/12/03 02:13:17;;;;;;;40.38;26.15;;;;;;;0.18;100.00;101906.53;5050905;28;20033;-63
2023/12/03 02:15:42;;;;;;;43.35;26.92;;;;;;;0.17;100.00;101913.50;5047788;28;20121;-63
2023/12/03 02:18:08;;;;;;;39.85;27.08;;;;;;;0.17;100.00;101913.50;5049928;28;20043;-64
2023/12/03 02:20:33;;;;;;;40.22;26.58;;;;;;;0.18;100.00;101919.59;5053422;28;20107;-63
2023/12/03 02:23:01;;;;;;;40.58;26.05;;;;;;;0.19;100.00;101918.72;5051942;28;20505;-63
2023/12/03 02:25:27;;;;;;;42.13;26.00;;;;;;;0.21;100.00;101918.69;5048378;28;20029;-63
2023/12/03 02:27:52;;;;;;;35.85;24.27;;;;;;;0.21;100.00;101921.31;5047089;28;20086;-64
2023/12/03 02:30:17;;;;;;;37.47;24.17;;;;;;;0.21;100.00;101909.09;5048913;28;20013;-63
2023/12/03 02:32:42;;;;;;;37.00;24.00;;;;;;;0.23;100.00;101916.91;5042594;28;20476;-64
2023/12/03 02:35:08;;;;;;;34.72;22.70;;;;;;;0.23;100.00;101915.16;5050346;28;20030;-63
2023/12/03 02:37:33;;;;;;;38.83;22.88;;;;;;;0.27;100.00;101918.59;5049689;28;20029;-64
2023/12/03 02:39:58;;;;;;;33.88;22.65;;;;;;;0.26;100.00;101917.72;5052240;28;20032;-63
2023/12/03 02:42:24;;;;;;;40.97;23.77;;;;;;;0.26;100.00;101915.09;5044465;28;20402;-63
2023/12/03 02:44:49;;;;;;;33.63;22.42;;;;;;;0.29;100.00;101919.44;5051031;28;20044;-63
2023/12/03 02:47:14;;;;;;;34.30;21.65;;;;;;;0.30;100.00;101919.41;5045278;28;20473;-63
2023/12/03 02:49:39;;;;;;;34.25;21.95;;;;;;;0.33;100.00;101921.09;5050046;28;20031;-63
2023/12/03 02:52:05;;;;;;;34.10;21.92;;;;;;;0.33;100.00;101916.75;5049351;28;20075;-63
2023/12/03 02:54:30;;;;;;;34.28;21.60;;;;;;;0.34;100.00;101912.38;5045588;28;20120;-63
2023/12/03 02:56:55;;;;;;;38.03;22.30;;;;;;;0.33;100.00;101918.47;5043137;28;20048;-63
2023/12/03 02:59:21;;;;;;;32.13;22.30;;;;;;;0.33;100.00;101919.38;5043516;28;20090;-63
2023/12/03 03:01:46;;;;;;;36.28;23.00;;;;;;;0.31;100.00;101917.66;5047647;28;20013;-63
2023/12/03 03:04:11;;;;;;;39.00;23.60;;;;;;;0.30;100.00;101910.69;5044428;28;20111;-64
2023/12/03 03:06:37;;;;;;;37.53;23.33;;;;;;;0.28;100.00;101910.72;5046173;28;20029;-63
2023/12/03 03:09:03;;;;;;;33.65;21.48;;;;;;;0.27;100.00;101911.63;5044180;28;20021;-63
2023/12/03 03:11:28;;;;;;;35.05;22.42;;;;;;;0.26;100.00;101916.88;5042904;28;20520;-63
2023/12/03 03:13:54;;;;;;;35.95;22.83;;;;;;;0.24;100.00;101911.66;5044594;28;20032;-63
2023/12/03 03:16:24;;;;;;;33.45;22.25;;;;;;;0.20;100.00;101917.84;5048070;28;20055;-63
2023/12/03 03:18:50;;;;;;;32.83;22.23;;;;;;;0.18;100.00;101914.38;5044457;28;20037;-64
2023/12/03 03:21:15;;;;;;;35.38;22.25;;;;;;;0.16;100.00;101916.16;5047843;28;20595;-63
2023/12/03 03:23:40;;;;;;;32.13;22.25;;;;;;;0.13;100.00;101916.19;5048159;28;20021;-63
2023/12/03 03:26:06;;;;;;;37.88;22.83;;;;;;;0.09;100.00;101923.22;5048975;28;20025;-63
2023/12/03 03:28:31;;;;;;;35.50;21.90;;;;;;;0.06;100.00;101919.81;5044372;28;20032;-63
2023/12/03 03:30:58;;;;;;;37.63;22.40;;;;;;;0.02;100.00;101913.75;5044444;28;20359;-63
2023/12/03 03:33:23;;;;;;;36.28;23.33;;;;;;;0.01;100.00;101916.41;5045887;28;20048;-63
2023/12/03 03:35:49;;;;;;;36.53;21.80;;;;;;;-0.02;100.00;101912.06;5046375;28;20367;-63
2023/12/03 03:38:14;;;;;;;35.47;22.20;;;;;;;-0.02;100.00;101912.06;5047604;28;20025;-63
2023/12/03 03:40:39;;;;;;;31.48;20.45;;;;;;;-0.04;100.00;101922.53;5046505;28;20033;-63
2023/12/03 03:43:04;;;;;;;31.98;21.33;;;;;;;-0.05;100.00;101925.16;5045812;28;20029;-63
2023/12/03 03:45:30;;;;;;;36.50;22.40;;;;;;;-0.10;100.00;101925.25;5047651;28;20017;-63
2023/12/03 03:47:55;;;;;;;37.05;22.05;;;;;;;-0.13;100.00;101917.47;5045525;28;20025;-64
2023/12/03 03:50:20;;;;;;;36.40;22.27;;;;;;;-0.13;100.00;101919.19;5046840;28;20112;-63
2023/12/03 03:52:46;;;;;;;32.38;21.05;;;;;;;-0.17;100.00;101926.22;5046971;28;20382;-63
2023/12/03 03:55:11;;;;;;;32.28;21.77;;;;;;;-0.20;100.00;101919.31;5049688;28;20037;-63
2023/12/03 03:57:36;;;;;;;35.25;22.25;;;;;;;-0.24;100.00;101930.66;5050928;28;20053;-63
2023/12/03 04:00:02;;;;;;;35.08;21.67;;;;;;;-0.26;100.00;101939.41;5050518;28;20470;-63
2023/12/03 04:02:27;;;;;;;34.42;22.48;;;;;;;-0.31;100.00;101939.47;5043691;28;20095;-64
2023/12/03 04:04:52;;;;;;;33.75;21.85;;;;;;;-0.33;100.00;101937.75;5053436;28;20028;-63
2023/12/03 04:07:18;;;;;;;34.22;22.02;;;;;;;-0.37;100.00;101939.53;5048889;28;20029;-63
2023/12/03 04:09:44;;;;;;;36.20;22.73;;;;;;;-0.38;100.00;101940.44;5044411;28;20040;-63
2023/12/03 04:12:10;;;;;;;33.70;20.88;;;;;;;-0.44;100.00;101930.09;5046802;28;20452;-63
2023/12/03 04:14:35;;;;;;;36.65;22.10;;;;;;;-0.46;100.00;101939.69;5047473;28;20121;-63
2023/12/03 04:17:00;;;;;;;35.42;21.40;;;;;;;-0.49;100.00;101934.50;5045305;28;20074;-63
2023/12/03 04:19:26;;;;;;;36.97;21.75;;;;;;;-0.52;100.00;101939.75;5049102;28;20470;-64
2023/12/03 04:21:51;;;;;;;37.80;21.80;;;;;;;-0.57;100.00;101940.69;5048244;28;20074;-63
2023/12/03 04:24:16;;;;;;;34.70;21.52;;;;;;;-0.60;100.00;101940.72;5043590;28;20025;-63
2023/12/03 04:26:42;;;;;;;35.90;22.05;;;;;;;-0.65;100.00;101942.53;5047065;28;20036;-64
2023/12/03 04:29:08;;;;;;;35.25;21.52;;;;;;;-0.69;100.00;101942.59;5043264;28;20021;-64
2023/12/03 04:31:33;;;;;;;38.42;22.55;;;;;;;-0.72;100.00;101942.63;5046946;28;20035;-64
2023/12/03 04:33:58;;;;;;;38.90;23.10;;;;;;;-0.77;100.00;101953.97;5045251;28;20041;-63
2023/12/03 04:36:24;;;;;;;38.75;22.35;;;;;;;-0.80;100.00;101948.78;5050096;28;20020;-64
2023/12/03 04:38:51;;;;;;;38.35;23.15;;;;;;;-0.84;100.00;101947.09;5046963;28;20394;-63
2023/12/03 04:41:16;;;;;;;35.95;22.35;;;;;;;-0.88;100.00;101950.63;5051043;28;20029;-63
2023/12/03 04:43:41;;;;;;;34.65;21.42;;;;;;;-0.90;100.00;101949.75;5049423;28;20017;-63
2023/12/03 04:46:07;;;;;;;35.05;21.58;;;;;;;-0.93;100.00;101952.41;5051744;28;20029;-63
2023/12/03 04:48:34;;;;;;;39.55;22.58;;;;;;;-0.98;100.00;101954.22;5052655;28;20025;-63
2023/12/03 04:51:00;;;;;;;33.00;21.10;;;;;;;-1.00;100.00;101948.13;5052319;28;20025;-63
2023/12/03 04:53:26;;;;;;;38.33;22.17;;;;;;;-1.03;100.00;101954.25;5050963;28;20111;-63
2023/12/03 04:55:51;;;;;;;37.88;22.02;;;;;;;-1.04;100.00;101951.66;5052580;28;20440;-63
2023/12/03 04:58:16;;;;;;;37.92;22.60;;;;;;;-1.09;100.00;101954.31;5047590;28;20045;-63
2023/12/03 05:00:42;;;;;;;39.53;22.85;;;;;;;-1.13;100.00;101952.63;5041306;28;20036;-63
2023/12/03 05:03:07;;;;;;;37.53;23.15;;;;;;;-1.15;100.00;101947.44;5043273;28;20067;-63
2023/12/03 05:05:32;;;;;;;37.10;22.15;;;;;;;-1.20;100.00;101951.84;5052887;28;20017;-63
2023/12/03 05:07:58;;;;;;;41.78;22.85;;;;;;;-1.23;100.00;101956.19;5052140;28;20024;-63
2023/12/03 05:10:23;;;;;;;38.53;23.52;;;;;;;-1.24;100.00;101959.69;5050426;28;20638;-63
2023/12/03 05:12:49;;;;;;;42.03;22.83;;;;;;;-1.28;100.00;101958.84;5048478;28;20037;-64
2023/12/03 05:15:14;;;;;;;43.03;25.50;;;;;;;-1.32;100.00;101968.44;5052917;28;20017;-64
2023/12/03 05:17:40;;;;;;;43.17;24.63;;;;;;;-1.34;100.00;101961.50;5047732;28;20116;-63
2023/12/03 05:20:06;;;;;;;40.03;24.35;;;;;;;-1.38;100.00;101959.78;5051856;28;20056;-63
2023/12/03 05:22:32;;;;;;;46.08;26.58;;;;;;;-1.39;100.00;101965.91;5051033;28;20038;-64
2023/12/03 05:24:57;;;;;;;44.50;26.00;;;;;;;-1.42;100.00;101966.78;5051359;28;20029;-64
2023/12/03 05:27:22;;;;;;;45.03;27.77;;;;;;;-1.44;100.00;101960.72;5054144;28;20115;-64
2023/12/03 05:29:48;;;;;;;44.38;26.40;;;;;;;-1.49;100.00;101965.97;5047815;28;20465;-64
2023/12/03 05:32:14;;;;;;;43.88;25.75;;;;;;;-1.51;100.00;101964.28;5047724;28;20100;-64
2023/12/03 05:34:43;;;;;;;47.53;26.05;;;;;;;-1.53;100.00;101966.03;5049721;28;20037;-64
2023/12/03 05:37:09;;;;;;;47.50;26.73;;;;;;;-1.55;100.00;101971.25;5046924;28;20029;-64
2023/12/03 05:39:35;;;;;;;46.90;25.95;;;;;;;-1.58;100.00;101967.78;5047586;28;20581;-64
2023/12/03 05:42:00;;;;;;;46.78;27.30;;;;;;;-1.61;100.00;101962.63;5048423;28;20040;-64
2023/12/03 05:44:25;;;;;;;45.33;25.88;;;;;;;-1.61;100.00;101970.44;5042234;28;20470;-64
2023/12/03 05:46:51;;;;;;;44.45;25.60;;;;;;;-1.62;100.00;101966.94;5049629;28;20029;-63
2023/12/03 05:49:16;;;;;;;44.30;25.52;;;;;;;-1.63;100.00;101970.44;5052099;28;20025;-64
2023/12/03 05:51:45;;;;;;;44.78;24.50;;;;;;;-1.62;100.00;101966.09;5049181;28;20363;-63
2023/12/03 05:54:10;;;;;;;45.92;25.23;;;;;;;-1.63;100.00;101974.78;5048288;28;20044;-63
2023/12/03 05:56:36;;;;;;;44.83;24.33;;;;;;;-1.65;100.00;101972.16;5050301;28;20017;-64
2023/12/03 05:59:01;;;;;;;44.60;24.13;;;;;;;-1.66;100.00;101974.81;5044302;28;20032;-63
2023/12/03 06:01:26;;;;;;;42.47;24.67;;;;;;;-1.66;100.00;101972.22;5047256;28;20509;-64
2023/12/03 06:03:52;;;;;;;42.40;23.98;;;;;;;-1.68;100.00;101978.28;5049502;28;20036;-63
2023/12/03 06:06:18;;;;;;;41.13;24.17;;;;;;;-1.66;100.00;101980.03;5047656;28;20026;-64
2023/12/03 06:08:44;;;;;;;44.75;23.20;;;;;;;-1.66;100.00;101987.84;5047062;28;20036;-64
2023/12/03 06:11:09;;;;;;;39.60;23.25;;;;;;;-1.66;100.00;101987.84;5048361;28;20044;-64
2023/12/03 06:13:35;;;;;;;39.45;23.85;;;;;;;-1.69;100.00;101986.97;5045438;28;20021;-64
2023/12/03 06:16:00;;;;;;;41.95;23.52;;;;;;;-1.67;100.00;101986.97;5052395;28;20134;-63
2023/12/03 06:18:27;;;;;;;44.17;24.38;;;;;;;-1.69;100.00;101986.13;5048663;28;20104;-64
2023/12/03 06:20:53;;;;;;;43.47;23.85;;;;;;;-1.70;100.00;101992.19;5053160;28;20497;-63
2023/12/03 06:23:18;;;;;;;42.83;23.63;;;;;;;-1.73;100.00;101990.47;5046586;28;20025;-64
2023/12/03 06:25:43;;;;;;;40.40;23.38;;;;;;;-1.73;100.00;102002.66;5048627;28;20427;-63
2023/12/03 06:28:09;;;;;;;39.63;22.98;;;;;;;-1.73;100.00;102002.66;5048023;28;20048;-64
2023/12/03 06:30:35;;;;;;;38.78;21.38;;;;;;;-1.72;100.00;101997.41;5051948;28;20451;-64
2023/12/03 06:33:01;;;;;;;40.28;22.23;;;;;;;-1.73;100.00;101987.88;5052382;28;20052;-64
2023/12/03 06:35:26;;;;;;;42.20;22.05;;;;;;;-1.74;100.00;101986.13;5051585;28;20040;-64
2023/12/03 06:37:51;;;;;;;43.47;24.58;;;;;;;-1.74;100.00;101982.69;5046501;28;20102;-64
2023/12/03 06:40:16;;;;;;;44.72;23.23;;;;;;;-1.73;100.00;101987.03;5042739;28;20496;-64
2023/12/03 06:42:42;;;;;;;38.92;22.10;;;;;;;-1.76;100.00;101974.88;5051615;28;20029;-64
2023/12/03 06:45:08;;;;;;;39.00;22.27;;;;;;;-1.75;100.00;101979.22;5049541;28;20222;-64
2023/12/03 06:47:33;;;;;;;41.72;23.40;;;;;;;-1.76;100.00;101974.88;5054267;28;20155;-64
2023/12/03 06:49:58;;;;;;;41.28;22.27;;;;;;;-1.76;100.00;101980.09;5050110;28;20029;-64
2023/12/03 06:52:24;;;;;;;46.20;24.52;;;;;;;-1.77;100.00;101974.88;5047086;28;20489;-64
2023/12/03 06:54:49;;;;;;;42.30;22.77;;;;;;;-1.75;100.00;101986.16;5063374;28;20025;-64
2023/12/03 06:57:14;;;;;;;37.75;21.90;;;;;;;-1.76;100.00;101980.09;5049625;28;20056;-63
2023/12/03 06:59:40;;;;;;;39.28;22.95;;;;;;;-1.74;100.00;101978.31;5042323;28;20079;-63
2023/12/03 07:02:05;;;;;;;39.17;21.75;;;;;;;-1.75;100.00;101979.22;5044607;28;20045;-63
2023/12/03 07:04:31;;;;;;;37.83;21.38;;;;;;;-1.75;100.00;101981.81;5049101;28;20024;-63
2023/12/03 07:06:56;;;;;;;41.67;22.33;;;;;;;-1.73;100.00;101974.00;5045814;28;20478;-62
2023/12/03 07:09:22;;;;;;;38.97;21.48;;;;;;;-1.73;100.00;101979.22;5043917;28;20025;-63
2023/12/03 07:11:47;;;;;;;42.00;23.52;;;;;;;-1.76;100.00;101977.47;5039209;28;20029;-62
2023/12/03 07:14:12;;;;;;;39.63;22.95;;;;;;;-1.79;100.00;101985.31;5037752;28;20056;-62
2023/12/03 07:16:37;;;;;;;42.28;22.70;;;;;;;-1.81;100.00;101988.81;5046713;28;20064;-63
2023/12/03 07:19:03;;;;;;;41.70;22.90;;;;;;;-1.86;100.00;101992.28;5049457;28;20025;-63
2023/12/03 07:21:28;;;;;;;40.13;22.30;;;;;;;-1.88;100.00;101993.19;5045079;28;20029;-63
2023/12/03 07:23:53;;;;;;;39.08;21.55;;;;;;;-1.91;100.00;101995.81;5046584;28;20033;-63
2023/12/03 07:26:19;;;;;;;41.50;22.45;;;;;;;-1.94;100.00;102001.03;5050395;28;20078;-63
2023/12/03 07:28:44;;;;;;;40.75;22.15;;;;;;;-1.97;100.00;101996.69;5040043;28;20029;-63
2023/12/03 07:31:09;;;;;;;40.83;22.15;;;;;;;-1.99;100.00;102002.81;5043753;28;20017;-62
2023/12/03 07:33:34;;;;;;;35.80;22.10;;;;;;;-2.04;100.00;102005.44;5045972;28;20030;-62
2023/12/03 07:36:00;;;;;;;41.13;21.67;;;;;;;-2.08;100.00;102004.59;5049399;28;20063;-62
2023/12/03 07:38:27;;;;;;;37.35;21.52;;;;;;;-2.11;100.00;102012.41;5041484;28;20025;-62
2023/12/03 07:40:53;;;;;;;40.22;21.80;;;;;;;-2.12;100.00;102002.84;5050337;28;20398;-62
2023/12/03 07:43:18;;;;;;;39.53;21.33;;;;;;;-2.14;100.00;102009.81;5048763;28;20021;-62
2023/12/03 07:45:43;;;;;;;43.20;23.17;;;;;;;-2.15;100.00;102007.22;5048044;28;20032;-63
2023/12/03 07:48:09;;;;;;;47.17;24.25;;;;;;;-2.17;100.00;102001.16;5045870;28;20043;-62
2023/12/03 07:50:34;;;;;;;43.67;22.25;;;;;;;-2.18;100.00;102002.91;5044075;28;20029;-62
2023/12/03 07:52:59;;;;;;;43.85;22.35;;;;;;;-2.19;100.00;102006.38;5044237;28;20481;-62
2023/12/03 07:55:25;;;;;;;40.63;22.10;;;;;;;-2.18;100.00;102007.22;5047064;28;20044;-63
2023/12/03 07:57:50;;;;;;;42.10;21.58;;;;;;;-2.20;100.00;102004.63;5046245;28;20075;-62
2023/12/03 08:00:15;;;;;;;39.15;21.95;;;;;;;-2.19;100.00;102006.38;5043761;28;20390;-62
2023/12/03 08:02:42;;;;;;;43.33;21.48;;;;;;;-2.20;100.00;102008.97;5041146;28;20070;-62
2023/12/03 08:05:08;;;;;;;37.90;22.15;;;;;;;-2.22;100.00;102005.53;5046334;28;20466;-62
2023/12/03 08:07:34;;;;;;;39.08;21.52;;;;;;;-2.23;100.00;102007.28;5041031;28;20492;-62
2023/12/03 08:09:59;;;;;;;41.95;21.77;;;;;;;-2.24;100.00;102010.75;5042653;28;20228;-63
2023/12/03 08:12:24;;;;;;;41.80;23.05;;;;;;;-2.22;100.00;102015.94;5044056;28;20077;-62
2023/12/03 08:14:50;;;;;;;40.78;21.70;;;;;;;-2.23;100.00;102022.88;5043162;28;20030;-62
2023/12/03 08:17:15;;;;;;;38.42;21.02;;;;;;;-2.23;100.00;102028.09;5045087;28;20100;-62
2023/12/03 08:19:40;;;;;;;39.80;21.73;;;;;;;-2.21;100.00;102022.84;5045569;28;20033;-62
2023/12/03 08:22:09;;;;;;;39.75;20.92;;;;;;;-2.19;100.00;102023.72;5049486;28;20036;-62
2023/12/03 08:24:35;;;;;;;46.65;22.17;;;;;;;-2.18;100.00;102025.44;5042514;28;20070;-62
2023/12/03 08:27:00;;;;;;;42.88;22.23;;;;;;;-2.17;100.00;102022.84;5047157;28;20098;-62
2023/12/03 08:29:26;;;;;;;38.63;21.67;;;;;;;-2.15;100.00;102026.31;5043534;28;20390;-62
2023/12/03 08:31:51;;;;;;;39.72;21.70;;;;;;;-2.11;100.00;102028.03;5049036;28;20021;-62
2023/12/03 08:34:17;;;;;;;42.08;22.98;;;;;;;-2.09;100.00;102028.88;5043788;28;20745;-62
2023/12/03 08:36:43;;;;;;;43.17;22.75;;;;;;;-2.06;100.00;102034.06;5045673;28;20041;-62
2023/12/03 08:39:08;;;;;;;44.50;22.10;;;;;;;-2.01;100.00;102036.66;5044216;28;20152;-62
2023/12/03 08:41:36;;;;;;;43.65;23.55;;;;;;;-1.94;100.00;102040.09;5044953;28;20462;-62
2023/12/03 08:44:02;;;;;;;45.00;22.58;;;;;;;-1.90;100.00;102033.97;5043715;28;20036;-62
2023/12/03 08:46:28;;;;;;;43.88;22.05;;;;;;;-1.84;100.00;102038.31;5041673;28;20033;-62
2023/12/03 08:48:53;;;;;;;41.17;23.30;;;;;;;-1.78;100.00;102046.94;5041916;28;20028;-62
2023/12/03 08:51:19;;;;;;;43.65;24.55;;;;;;;-1.70;100.00;102049.50;5049723;28;20032;-62
2023/12/03 08:53:44;;;;;;;38.55;21.67;;;;;;;-1.62;100.00;102052.06;5042767;28;20473;-62
2023/12/03 08:56:12;;;;;;;42.30;22.17;;;;;;;-1.56;100.00;102047.66;5048399;28;20387;-62
2023/12/03 08:58:41;;;;;;;42.15;21.48;;;;;;;-1.47;100.00;102044.13;5044378;28;20072;-62
2023/12/03 09:01:09;;;;;;;41.07;21.77;;;;;;;-1.41;100.00;102057.13;5041740;28;20025;-62
2023/12/03 09:03:37;;;;;;;37.15;21.63;;;;;;;-1.39;100.00;102050.16;5043545;28;20029;-62
2023/12/03 09:06:03;;;;;;;39.45;20.95;;;;;;;-1.35;100.00;102053.59;5043787;28;20028;-62
2023/12/03 09:08:28;;;;;;;36.10;20.65;;;;;;;-1.32;100.00;102054.47;5040827;28;20040;-62
2023/12/03 09:10:54;;;;;;;36.75;20.60;;;;;;;-1.31;100.00;102056.16;5037521;28;20467;-61
2023/12/03 09:13:19;;;;;;;34.63;19.83;;;;;;;-1.29;100.00;102058.78;5039151;28;20033;-61
2023/12/03 09:15:44;;;;;;;36.20;20.45;;;;;;;-1.28;100.00;102060.50;5040950;28;20394;-62
2023/12/03 09:18:10;;;;;;;39.20;21.02;;;;;;;-1.28;100.00;102057.91;5044322;28;20181;-62
2023/12/03 09:20:35;;;;;;;35.00;20.08;;;;;;;-1.28;100.00;102059.63;5044539;28;20035;-62
2023/12/03 09:23:00;;;;;;;38.58;20.35;;;;;;;-1.27;100.00;102057.00;5045457;28;20039;-62
2023/12/03 09:25:26;;;;;;;39.25;20.67;;;;;;;-1.28;100.00;102057.91;5048028;28;20017;-62
2023/12/03 09:27:51;;;;;;;34.45;19.30;;;;;;;-1.26;100.00;102058.75;5046584;28;20048;-62
2023/12/03 09:30:16;;;;;;;34.85;19.35;;;;;;;-1.25;100.00;102060.50;5050390;28;20104;-62
2023/12/03 09:32:42;;;;;;;32.53;18.83;;;;;;;-1.24;100.00;102059.59;5047041;28;20066;-62
2023/12/03 09:35:07;;;;;;;34.72;19.73;;;;;;;-1.21;100.00;102059.56;5046794;28;20126;-62
2023/12/03 09:37:32;;;;;;;36.33;19.95;;;;;;;-1.20;100.00;102053.50;5051294;28;20116;-62
2023/12/03 09:39:58;;;;;;;33.53;18.52;;;;;;;-1.18;100.00;102053.50;5049493;28;20413;-62
2023/12/03 09:42:26;;;;;;;32.88;18.65;;;;;;;-1.17;100.00;102042.16;5048813;28;20485;-62
2023/12/03 09:45:03;;;;;;;34.83;19.88;;;;;;;-1.10;100.00;102051.66;5046152;28;20036;-62
2023/12/03 09:47:34;;;;;;;31.42;18.77;;;;;;;-1.07;100.00;102043.81;5044838;28;20025;-62
2023/12/03 09:50:00;;;;;;;31.73;18.27;;;;;;;-1.04;100.00;102041.19;5049253;28;20037;-62
2023/12/03 09:52:29;;;;;;;31.38;19.33;;;;;;;-1.00;100.00;102039.41;5047770;28;20036;-62
2023/12/03 09:54:58;;;;;;;35.58;19.85;;;;;;;-0.98;100.00;102042.88;5046112;28;20029;-62
2023/12/03 09:57:26;;;;;;;32.47;18.65;;;;;;;-0.95;100.00;102048.03;5049285;28;20532;-62
2023/12/03 09:59:55;;;;;;;33.72;18.42;;;;;;;-0.91;100.00;102043.69;5048467;28;20025;-62
2023/12/03 10:02:26;;;;;;;30.58;18.33;;;;;;;-0.88;100.00;102048.84;5041115;28;20029;-63
2023/12/03 10:04:52;;;;;;;33.53;17.92;;;;;;;-0.88;100.00;102038.41;5041666;28;20032;-62
2023/12/03 10:07:19;;;;;;;32.35;17.77;;;;;;;-0.83;100.00;102040.13;5044525;28;20521;-62
2023/12/03 10:09:48;;;;;;;30.95;17.98;;;;;;;-0.78;100.00;102042.69;5047129;28;20021;-62
2023/12/03 10:12:16;;;;;;;32.63;19.37;;;;;;;-0.76;100.00;102027.88;5043427;28;20025;-62
2023/12/03 10:14:42;;;;;;;30.60;18.40;;;;;;;-0.74;100.00;102031.31;5044296;28;20033;-62
2023/12/03 10:17:08;;;;;;;31.70;19.15;;;;;;;-0.70;100.00;102029.53;5039855;28;20029;-62
2023/12/03 10:19:34;;;;;;;32.03;18.58;;;;;;;-0.67;100.00;102027.75;5042930;28;20079;-62
2023/12/03 10:21:59;;;;;;;29.33;17.30;;;;;;;-0.65;100.00;102023.41;5052592;28;20447;-62
2023/12/03 10:24:25;;;;;;;30.23;17.45;;;;;;;-0.62;100.00;102023.34;5047812;28;20104;-62
2023/12/03 10:26:52;;;;;;;31.42;18.13;;;;;;;-0.59;100.00;102018.09;5048627;28;20124;-62
2023/12/03 10:29:23;;;;;;;29.83;17.95;;;;;;;-0.55;100.00;102024.16;5046396;28;20113;-62
2023/12/03 10:31:50;;;;;;;28.10;16.63;;;;;;;-0.51;100.00;102030.22;5036762;28;20029;-62
2023/12/03 10:34:16;;;;;;;30.77;18.23;;;;;;;-0.48;100.00;102024.94;5042398;28;20115;-62
2023/12/03 10:36:44;;;;;;;30.13;16.92;;;;;;;-0.44;100.00;102018.81;5046788;28;20021;-62
2023/12/03 10:39:16;;;;;;;31.17;17.17;;;;;;;-0.37;100.00;102017.84;5047036;28;20028;-62
2023/12/03 10:41:45;;;;;;;30.88;17.40;;;;;;;-0.32;100.00;102005.63;5043974;28;20069;-62
2023/12/03 10:44:15;;;;;;;28.90;17.65;;;;;;;-0.27;100.00;102006.41;5047536;28;20408;-62
2023/12/03 10:46:41;;;;;;;30.20;16.92;;;;;;;-0.22;100.00;102001.13;5043100;28;20025;-62
2023/12/03 10:49:06;;;;;;;28.73;16.80;;;;;;;-0.17;100.00;102001.09;5048237;28;20367;-62
2023/12/03 10:51:35;;;;;;;26.90;16.27;;;;;;;-0.10;100.00;102000.09;5048993;28;20033;-62
2023/12/03 10:54:00;;;;;;;26.08;15.82;;;;;;;-0.06;99.84;102000.06;5047542;28;20021;-62
2023/12/03 10:56:26;;;;;;;28.50;17.27;;;;;;;0.02;99.78;102001.69;5042886;28;20024;-62
2023/12/03 10:58:52;;;;;;;27.42;16.85;;;;;;;0.11;99.48;101999.81;5046252;28;20025;-62